Wetterdaten: Woche 21.01.13 - 27.01.13 (KW4)
Datum Zeit Temp. A. Feuchte A. Luftdruck Regen Wind Richtung Taupunkt Windchill Windben
21.01.2013 00:00 -0,0 C 80 % 995,5 hPa 0,0 l/m 0,4 km/h N -3,0 C -0,0 C 3,2 km/h
21.01.2013 01:00 0,3 C 80 % 995,3 hPa 0,0 l/m 1,0 km/h N -2,7 C 0,3 C 6,0 km/h
21.01.2013 02:00 0,6 C 80 % 995,3 hPa 0,0 l/m 2,7 km/h N -2,5 C 0,6 C 8,0 km/h
21.01.2013 03:00 0,3 C 80 % 995,3 hPa 0,0 l/m 2,8 km/h N -2,8 C 0,3 C 7,6 km/h
21.01.2013 04:00 0,3 C 80 % 995,0 hPa 0,0 l/m 1,5 km/h N -2,8 C 0,3 C 6,0 km/h
21.01.2013 05:00 0,3 C 80 % 995,2 hPa 0,0 l/m 0,9 km/h N -2,8 C 0,3 C 4,8 km/h
21.01.2013 06:00 0,2 C 80 % 995,7 hPa 0,0 l/m 1,7 km/h N -2,9 C 0,2 C 6,8 km/h
21.01.2013 07:00 0,1 C 79 % 996,3 hPa 0,0 l/m 3,5 km/h N -3,0 C 0,1 C 9,3 km/h
21.01.2013 08:00 -0,1 C 80 % 997,1 hPa 0,0 l/m 7,4 km/h N -3,1 C -1,1 C 17,3 km/h
21.01.2013 09:00 0,2 C 81 % 997,5 hPa 0,0 l/m 7,3 km/h N -2,8 C -1,1 C 16,9 km/h
21.01.2013 10:00 0,7 C 82 % 997,5 hPa 0,3 l/m 6,1 km/h N -2,0 C 0,7 C 16,9 km/h
21.01.2013 11:00 1,2 C 86 % 997,4 hPa 1,3 l/m 7,5 km/h N -1,0 C -0,1 C 15,7 km/h
21.01.2013 12:00 1,3 C 84 % 997,0 hPa 1,3 l/m 5,0 km/h N -1,1 C 1,3 C 13,3 km/h
21.01.2013 13:00 1,4 C 82 % 996,6 hPa 0,8 l/m 7,1 km/h N -1,4 C 0,7 C 19,7 km/h
21.01.2013 14:00 1,3 C 82 % 996,8 hPa 0,5 l/m 6,6 km/h N -1,4 C 1,1 C 14,9 km/h
21.01.2013 15:00 1,0 C 82 % 997,0 hPa 0,3 l/m 8,3 km/h N -1,8 C -0,8 C 18,1 km/h
21.01.2013 16:00 0,9 C 82 % 997,4 hPa 0,0 l/m 7,5 km/h N -1,9 C -0,2 C 17,7 km/h
21.01.2013 17:00 0,8 C 81 % 997,8 hPa 0,3 l/m 8,4 km/h N -2,1 C -1,2 C 18,5 km/h
21.01.2013 18:00 0,4 C 81 % 998,2 hPa 0,0 l/m 11,3 km/h N -2,5 C -3,9 C 23,3 km/h
21.01.2013 19:00 0,3 C 80 % 998,6 hPa 0,0 l/m 12,3 km/h N -2,8 C -4,8 C 24,1 km/h
21.01.2013 20:00 0,6 C 78 % 999,2 hPa 0,0 l/m 11,2 km/h N -2,8 C -3,8 C 24,1 km/h
21.01.2013 21:00 0,6 C 78 % 999,6 hPa 0,0 l/m 11,9 km/h N -2,9 C -4,2 C 24,1 km/h
21.01.2013 22:00 0,3 C 79 % 1000,0 hPa 0,0 l/m 11,8 km/h N -3,0 C -4,2 C 22,9 km/h
21.01.2013 23:00 -0,1 C 81 % 1000,5 hPa 0,0 l/m 7,4 km/h N -3,0 C -1,1 C 18,1 km/h
22.01.2013 00:00 -0,3 C 82 % 1000,6 hPa 0,0 l/m 10,0 km/h N -3,0 C -3,8 C 20,9 km/h
22.01.2013 01:00 -0,2 C 82 % 1000,8 hPa 0,0 l/m 8,1 km/h N -2,9 C -2,0 C 18,9 km/h
22.01.2013 02:00 -0,1 C 82 % 1001,1 hPa 0,0 l/m 9,8 km/h N -2,8 C -3,3 C 20,1 km/h
22.01.2013 03:00 -0,2 C 81 % 1001,4 hPa 0,0 l/m 10,3 km/h N -3,0 C -3,9 C 21,3 km/h
22.01.2013 04:00 -0,3 C 81 % 1001,8 hPa 0,0 l/m 9,2 km/h N -3,1 C -2,9 C 20,9 km/h
22.01.2013 05:00 -0,4 C 82 % 1002,0 hPa 0,0 l/m 7,2 km/h N -3,1 C -1,2 C 18,9 km/h
22.01.2013 06:00 -0,3 C 81 % 1002,2 hPa 0,0 l/m 7,9 km/h N -3,2 C -1,9 C 19,7 km/h
22.01.2013 07:00 -0,3 C 81 % 1002,6 hPa 0,0 l/m 8,2 km/h N -3,2 C -2,2 C 20,1 km/h
22.01.2013 08:00 -0,2 C 81 % 1003,3 hPa 0,0 l/m 8,1 km/h N -3,1 C -2,0 C 18,5 km/h
22.01.2013 09:00 0,1 C 79 % 1004,0 hPa 0,0 l/m 7,7 km/h N -3,1 C -1,2 C 20,1 km/h
22.01.2013 10:00 0,9 C 76 % 1004,4 hPa 0,0 l/m 7,6 km/h N -2,8 C -0,3 C 17,7 km/h
22.01.2013 11:00 1,6 C 73 % 1004,3 hPa 0,0 l/m 8,1 km/h N -2,7 C -0,0 C 19,7 km/h
22.01.2013 12:00 1,9 C 72 % 1004,0 hPa 0,3 l/m 8,1 km/h N -2,7 C 0,2 C 18,1 km/h
22.01.2013 13:00 1,8 C 72 % 1004,1 hPa 0,3 l/m 9,1 km/h N -2,7 C -0,7 C 19,7 km/h
22.01.2013 14:00 1,8 C 74 % 1004,0 hPa 0,3 l/m 7,2 km/h N -2,4 C 1,1 C 18,5 km/h
22.01.2013 15:00 1,8 C 74 % 1004,6 hPa 0,3 l/m 5,0 km/h N -2,3 C 1,8 C 12,1 km/h
22.01.2013 16:00 1,4 C 77 % 1005,1 hPa 0,0 l/m 4,8 km/h N -2,2 C 1,4 C 9,3 km/h
22.01.2013 17:00 1,2 C 78 % 1005,4 hPa 0,0 l/m 4,1 km/h N -2,2 C 1,2 C 9,7 km/h
22.01.2013 18:00 1,1 C 80 % 1005,7 hPa 0,0 l/m 2,6 km/h N -2,0 C 1,1 C 6,8 km/h
22.01.2013 19:00 0,9 C 80 % 1006,0 hPa 0,0 l/m 2,5 km/h N -2,2 C 0,9 C 6,8 km/h
22.01.2013 20:00 0,2 C 81 % 1006,1 hPa 0,0 l/m 2,3 km/h N -2,8 C 0,2 C 6,4 km/h
22.01.2013 21:00 -0,3 C 81 % 1006,4 hPa 0,0 l/m 3,8 km/h N -3,1 C -0,3 C 8,4 km/h
22.01.2013 22:00 -0,4 C 81 % 1006,7 hPa 0,0 l/m 4,1 km/h N -3,3 C -0,4 C 9,3 km/h
22.01.2013 23:00 -0,8 C 81 % 1007,0 hPa 0,0 l/m 2,5 km/h N -3,6 C -0,8 C 6,8 km/h
23.01.2013 00:00 -1,0 C 81 % 1007,1 hPa 0,0 l/m 3,3 km/h N -3,9 C -1,0 C 8,5 km/h
23.01.2013 01:00 -1,4 C 80 % 1007,3 hPa 0,0 l/m 2,1 km/h N -4,3 C -1,4 C 7,6 km/h
23.01.2013 02:00 -1,8 C 80 % 1007,5 hPa 0,0 l/m 0,8 km/h N -4,7 C -1,8 C 4,8 km/h
23.01.2013 03:00 -2,3 C 82 % 1007,8 hPa 0,0 l/m 0,5 km/h N -5,0 C -2,3 C 2,8 km/h
23.01.2013 04:00 -2,8 C 84 % 1008,2 hPa 0,0 l/m 0,2 km/h N -5,2 C -2,8 C 3,6 km/h
23.01.2013 05:00 -3,3 C 85 % 1008,3 hPa 0,0 l/m 0,2 km/h N -5,5 C -3,3 C 3,2 km/h
23.01.2013 06:00 -3,6 C 86 % 1008,5 hPa 0,0 l/m 0,2 km/h N -5,6 C -3,6 C 2,4 km/h
23.01.2013 07:00 -3,7 C 86 % 1008,8 hPa 0,0 l/m 0,1 km/h N -5,7 C -3,7 C 2,4 km/h
23.01.2013 08:00 -3,8 C 86 % 1009,4 hPa 0,0 l/m 0,1 km/h N -5,7 C -3,8 C 1,6 km/h
23.01.2013 09:00 -3,4 C 86 % 1009,6 hPa 0,0 l/m 0,2 km/h N -5,4 C -3,4 C 3,2 km/h
23.01.2013 10:00 -2,7 C 85 % 1009,8 hPa 0,0 l/m 0,9 km/h N -4,9 C -2,7 C 5,2 km/h
23.01.2013 11:00 -1,8 C 83 % 1009,8 hPa 0,3 l/m 1,6 km/h N -4,4 C -1,8 C 6,0 km/h
23.01.2013 12:00 -1,6 C 82 % 1009,5 hPa 0,0 l/m 2,6 km/h N -4,2 C -1,6 C 7,6 km/h
23.01.2013 13:00 -1,3 C 82 % 1009,3 hPa 0,0 l/m 3,4 km/h N -3,9 C -1,3 C 9,3 km/h
23.01.2013 14:00 -1,5 C 83 % 1009,3 hPa 0,0 l/m 3,7 km/h N -4,0 C -1,5 C 9,6 km/h
23.01.2013 15:00 -1,7 C 84 % 1009,3 hPa 0,0 l/m 2,3 km/h N -4,0 C -1,7 C 6,8 km/h
23.01.2013 16:00 -2,0 C 84 % 1009,3 hPa 0,0 l/m 0,9 km/h N -4,3 C -2,0 C 4,0 km/h
23.01.2013 17:00 -2,5 C 86 % 1010,0 hPa 0,0 l/m 2,3 km/h N -4,6 C -2,5 C 9,3 km/h
23.01.2013 18:00 -2,8 C 86 % 1010,3 hPa 0,0 l/m 2,4 km/h N -4,8 C -2,8 C 8,0 km/h
23.01.2013 19:00 -2,6 C 86 % 1010,4 hPa 0,0 l/m 3,6 km/h N -4,6 C -2,6 C 10,9 km/h
23.01.2013 20:00 -2,4 C 85 % 1010,0 hPa 0,0 l/m 0,2 km/h N -4,6 C -2,4 C 3,6 km/h
23.01.2013 21:00 -2,6 C 85 % 1010,0 hPa 0,0 l/m 0,0 km/h N -4,8 C -2,6 C 0,8 km/h
23.01.2013 22:00 -2,6 C 85 % 1010,0 hPa 0,0 l/m 0,4 km/h N -4,8 C -2,6 C 3,2 km/h
23.01.2013 23:00 -2,6 C 85 % 1010,1 hPa 0,0 l/m 0,0 km/h N -4,8 C -2,6 C 0,4 km/h
24.01.2013 00:00 -2,5 C 85 % 1009,6 hPa 0,0 l/m 0,0 km/h N -4,7 C -2,5 C 0,8 km/h
24.01.2013 01:00 -2,4 C 85 % 1009,2 hPa 0,0 l/m 0,0 km/h N -4,6 C -2,4 C 1,2 km/h
24.01.2013 02:00 -2,4 C 84 % 1009,1 hPa 0,0 l/m 0,6 km/h N -4,7 C -2,4 C 4,8 km/h
24.01.2013 03:00 -2,8 C 84 % 1008,9 hPa 0,0 l/m 0,3 km/h N -5,1 C -2,8 C 3,2 km/h
24.01.2013 04:00 -2,9 C 84 % 1009,1 hPa 0,0 l/m 0,1 km/h N -5,2 C -2,9 C 2,0 km/h
24.01.2013 05:00 -2,8 C 84 % 1009,0 hPa 0,0 l/m 0,0 km/h N -5,1 C -2,8 C 0,4 km/h
24.01.2013 06:00 -2,7 C 84 % 1009,3 hPa 0,0 l/m 0,0 km/h N -5,0 C -2,7 C 1,2 km/h
24.01.2013 07:00 -2,6 C 84 % 1009,5 hPa 0,0 l/m 0,1 km/h N -4,9 C -2,6 C 1,2 km/h
24.01.2013 08:00 -2,5 C 83 % 1009,6 hPa 0,0 l/m 0,1 km/h N -5,0 C -2,5 C 0,8 km/h
24.01.2013 09:00 -2,3 C 83 % 1009,8 hPa 0,0 l/m 0,0 km/h N -4,7 C -2,3 C 0,4 km/h
24.01.2013 10:00 -1,7 C 83 % 1009,8 hPa 0,0 l/m 0,0 km/h N -4,2 C -1,7 C 1,6 km/h
24.01.2013 11:00 -1,4 C 84 % 1009,8 hPa 0,0 l/m 0,7 km/h N -3,8 C -1,4 C 3,2 km/h
24.01.2013 12:00 -1,1 C 84 % 1009,4 hPa 0,0 l/m 1,8 km/h N -3,5 C -1,1 C 5,6 km/h
24.01.2013 13:00 -0,9 C 86 % 1009,3 hPa 0,0 l/m 3,0 km/h N -3,0 C -0,9 C 7,2 km/h
24.01.2013 14:00 -1,0 C 86 % 1009,4 hPa 0,0 l/m 4,2 km/h N -3,0 C -1,0 C 10,0 km/h
24.01.2013 15:00 -1,4 C 86 % 1009,9 hPa 0,0 l/m 5,9 km/h N -3,4 C -1,5 C 12,5 km/h
24.01.2013 16:00 -1,6 C 86 % 1010,3 hPa 0,0 l/m 5,1 km/h N -3,6 C -1,6 C 13,3 km/h
24.01.2013 17:00 -1,5 C 86 % 1010,7 hPa 0,0 l/m 4,9 km/h N -3,6 C -1,5 C 12,1 km/h
24.01.2013 18:00 -1,3 C 86 % 1011,1 hPa 0,0 l/m 5,0 km/h N -3,4 C -1,3 C 10,9 km/h
24.01.2013 19:00 -1,1 C 86 % 1011,2 hPa 0,0 l/m 8,0 km/h N -3,1 C -2,8 C 19,3 km/h
24.01.2013 20:00 -0,9 C 86 % 1011,4 hPa 0,0 l/m 7,9 km/h N -2,9 C -2,5 C 18,9 km/h
24.01.2013 21:00 -0,9 C 86 % 1011,6 hPa 0,0 l/m 7,8 km/h N -3,1 C -2,4 C 18,1 km/h
24.01.2013 22:00 -1,2 C 84 % 1012,2 hPa 0,0 l/m 9,6 km/h N -3,6 C -4,2 C 22,1 km/h
24.01.2013 23:00 -1,2 C 83 % 1012,6 hPa 0,0 l/m 7,0 km/h N -3,7 C -2,4 C 15,3 km/h
25.01.2013 00:00 -1,3 C 84 % 1012,7 hPa 0,0 l/m 6,0 km/h N -3,6 C -1,5 C 17,3 km/h
25.01.2013 01:00 -1,5 C 84 % 1012,9 hPa 0,0 l/m 8,2 km/h N -3,8 C -3,3 C 20,9 km/h
25.01.2013 02:00 -1,6 C 84 % 1013,5 hPa 0,0 l/m 9,1 km/h N -3,9 C -4,4 C 22,1 km/h
25.01.2013 03:00 -1,7 C 84 % 1014,0 hPa 0,0 l/m 8,8 km/h N -4,0 C -4,1 C 20,9 km/h
25.01.2013 04:00 -2,2 C 83 % 1014,2 hPa 0,0 l/m 7,8 km/h N -4,6 C -3,8 C 18,9 km/h
25.01.2013 05:00 -2,4 C 83 % 1014,3 hPa 0,0 l/m 8,8 km/h N -4,9 C -4,9 C 19,3 km/h
25.01.2013 06:00 -2,6 C 83 % 1014,5 hPa 0,0 l/m 9,6 km/h N -5,1 C -5,9 C 22,1 km/h
25.01.2013 07:00 -2,9 C 83 % 1015,1 hPa 0,0 l/m 8,7 km/h N -5,4 C -5,4 C 20,9 km/h
25.01.2013 08:00 -3,3 C 83 % 1015,7 hPa 0,0 l/m 9,6 km/h N -5,9 C -6,7 C 20,5 km/h
25.01.2013 09:00 -3,5 C 82 % 1016,2 hPa 0,0 l/m 10,0 km/h N -6,1 C -7,3 C 24,5 km/h
25.01.2013 10:00 -3,7 C 81 % 1017,1 hPa 0,0 l/m 11,1 km/h N -6,5 C -8,5 C 23,3 km/h
25.01.2013 11:00 -3,7 C 79 % 1017,0 hPa 0,0 l/m 12,7 km/h N -6,9 C -9,8 C 26,9 km/h
25.01.2013 12:00 -3,3 C 75 % 1016,7 hPa 0,0 l/m 14,1 km/h N -7,1 C -10,3 C 29,8 km/h
25.01.2013 13:00 -3,6 C 77 % 1016,7 hPa 0,0 l/m 11,2 km/h N -7,1 C -8,5 C 25,8 km/h
25.01.2013 14:00 -3,9 C 77 % 1016,8 hPa 0,0 l/m 12,5 km/h N -7,3 C -9,8 C 25,3 km/h
25.01.2013 15:00 -3,9 C 77 % 1016,8 hPa 0,0 l/m 12,1 km/h N -7,2 C -9,5 C 25,7 km/h
25.01.2013 16:00 -3,9 C 76 % 1017,3 hPa 0,0 l/m 10,8 km/h N -7,4 C -8,5 C 22,9 km/h
25.01.2013 17:00 -3,9 C 75 % 1018,0 hPa 0,0 l/m 11,0 km/h N -7,7 C -8,6 C 25,3 km/h
25.01.2013 18:00 -4,1 C 74 % 1018,5 hPa 0,0 l/m 10,9 km/h N -8,0 C -8,8 C 22,1 km/h
25.01.2013 19:00 -4,5 C 75 % 1019,1 hPa 0,0 l/m 10,1 km/h N -8,3 C -8,5 C 22,1 km/h
25.01.2013 20:00 -4,9 C 76 % 1019,2 hPa 0,0 l/m 8,8 km/h N -8,4 C -7,6 C 20,9 km/h
25.01.2013 21:00 -5,3 C 76 % 1019,0 hPa 0,0 l/m 8,8 km/h N -8,8 C -8,1 C 20,5 km/h
25.01.2013 22:00 -5,4 C 76 % 1019,0 hPa 0,0 l/m 8,4 km/h N -9,0 C -7,7 C 19,7 km/h
25.01.2013 23:00 -5,6 C 76 % 1018,9 hPa 0,0 l/m 7,4 km/h N -9,1 C -6,8 C 17,7 km/h
26.01.2013 00:00 -5,8 C 76 % 1018,4 hPa 0,0 l/m 7,4 km/h N -9,3 C -7,0 C 17,3 km/h
26.01.2013 01:00 -6,1 C 77 % 1017,9 hPa 0,0 l/m 6,6 km/h N -9,5 C -6,5 C 13,7 km/h
26.01.2013 02:00 -6,3 C 77 % 1017,5 hPa 0,0 l/m 5,1 km/h N -9,6 C -6,3 C 11,3 km/h
26.01.2013 03:00 -6,4 C 78 % 1017,0 hPa 0,0 l/m 6,0 km/h N -9,7 C -6,6 C 15,3 km/h
26.01.2013 04:00 -6,5 C 78 % 1016,9 hPa 0,0 l/m 5,5 km/h N -9,7 C -6,5 C 13,3 km/h
26.01.2013 05:00 -6,5 C 78 % 1016,9 hPa 0,0 l/m 3,6 km/h N -9,7 C -6,5 C 10,1 km/h
26.01.2013 06:00 -6,5 C 79 % 1017,1 hPa 0,0 l/m 4,0 km/h N -9,6 C -6,5 C 10,1 km/h
26.01.2013 07:00 -6,4 C 79 % 1017,1 hPa 0,0 l/m 4,6 km/h N -9,6 C -6,4 C 12,9 km/h
26.01.2013 08:00 -6,3 C 78 % 1017,2 hPa 0,0 l/m 4,9 km/h N -9,5 C -6,3 C 10,5 km/h
26.01.2013 09:00 -6,0 C 78 % 1017,6 hPa 0,0 l/m 4,9 km/h N -9,3 C -6,0 C 10,9 km/h
26.01.2013 10:00 -5,5 C 76 % 1017,4 hPa 0,0 l/m 3,1 km/h N -9,0 C -5,5 C 7,6 km/h
26.01.2013 11:00 -4,8 C 74 % 1017,0 hPa 0,0 l/m 1,6 km/h N -8,6 C -4,8 C 6,4 km/h
26.01.2013 12:00 -4,0 C 71 % 1016,6 hPa 0,0 l/m 1,4 km/h N -8,4 C -4,0 C 6,0 km/h
26.01.2013 13:00 -3,7 C 71 % 1016,3 hPa 0,0 l/m 2,3 km/h N -8,3 C -3,7 C 6,8 km/h
26.01.2013 14:00 -3,0 C 70 % 1016,3 hPa 0,0 l/m 0,9 km/h N -7,7 C -3,0 C 6,0 km/h
26.01.2013 15:00 -3,1 C 70 % 1016,6 hPa 0,0 l/m 0,2 km/h N -7,8 C -3,1 C 3,2 km/h
26.01.2013 16:00 -4,1 C 71 % 1017,1 hPa 0,0 l/m 0,3 km/h N -8,5 C -4,1 C 2,4 km/h
26.01.2013 17:00 -5,6 C 73 % 1018,0 hPa 0,0 l/m 0,0 km/h N -9,6 C -5,6 C 0,4 km/h
26.01.2013 18:00 -7,1 C 77 % 1018,7 hPa 0,0 l/m 0,0 km/h N -10,5 C -7,1 C 0,0 km/h
26.01.2013 19:00 -7,3 C 81 % 1018,6 hPa 0,0 l/m 0,0 km/h N -10,0 C -7,3 C 0,8 km/h
26.01.2013 20:00 -7,8 C 82 % 1018,5 hPa 0,0 l/m 0,0 km/h N -10,3 C -7,8 C 0,0 km/h
26.01.2013 21:00 -9,1 C 83 % 1018,5 hPa 0,0 l/m 0,0 km/h N -11,5 C -9,1 C 0,0 km/h
26.01.2013 22:00 -10,0 C 84 % 1018,5 hPa 0,0 l/m 0,0 km/h N -12,2 C -10,0 C 0,0 km/h
26.01.2013 23:00 -10,9 C 85 % 1018,6 hPa 0,0 l/m 0,1 km/h N -12,9 C -10,9 C 1,6 km/h
27.01.2013 00:00 -11,2 C 85 % 1018,5 hPa 0,0 l/m 0,1 km/h N -13,2 C -11,2 C 2,8 km/h
27.01.2013 01:00 -11,0 C 86 % 1018,3 hPa 0,0 l/m 0,9 km/h N -12,9 C -11,0 C 4,0 km/h
27.01.2013 02:00 -10,3 C 86 % 1018,2 hPa 0,0 l/m 1,2 km/h N -12,2 C -10,3 C 4,8 km/h
27.01.2013 03:00 -9,9 C 86 % 1017,8 hPa 0,0 l/m 0,3 km/h N -11,8 C -9,9 C 2,0 km/h
27.01.2013 04:00 -11,1 C 85 % 1018,2 hPa 0,0 l/m 0,0 km/h N -13,1 C -11,1 C 0,4 km/h
27.01.2013 05:00 -11,8 C 85 % 1018,2 hPa 0,0 l/m 0,0 km/h N -13,7 C -11,8 C 0,4 km/h
27.01.2013 06:00 -11,3 C 86 % 1017,8 hPa 0,0 l/m 0,1 km/h N -13,2 C -11,3 C 2,4 km/h
27.01.2013 07:00 -10,7 C 86 % 1017,3 hPa 0,0 l/m 0,2 km/h N -12,6 C -10,7 C 2,0 km/h
27.01.2013 08:00 -10,1 C 86 % 1017,5 hPa 0,0 l/m 0,0 km/h N -12,0 C -10,1 C 0,8 km/h
27.01.2013 09:00 -8,6 C 86 % 1017,3 hPa 0,0 l/m 0,1 km/h N -10,5 C -8,6 C 2,0 km/h
27.01.2013 10:00 -7,4 C 86 % 1016,8 hPa 0,0 l/m 0,7 km/h N -9,3 C -7,4 C 4,0 km/h
27.01.2013 11:00 -6,0 C 85 % 1016,3 hPa 0,0 l/m 0,4 km/h N -8,1 C -6,0 C 2,8 km/h
27.01.2013 12:00 -4,1 C 80 % 1015,5 hPa 0,0 l/m 1,6 km/h N -7,1 C -4,1 C 6,4 km/h
27.01.2013 13:00 -3,5 C 78 % 1014,8 hPa 0,0 l/m 0,6 km/h N -6,9 C -3,5 C 4,0 km/h
27.01.2013 14:00 -3,8 C 77 % 1014,3 hPa 0,0 l/m 0,5 km/h N -7,2 C -3,8 C 4,0 km/h
27.01.2013 15:00 -4,6 C 80 % 1014,2 hPa 0,0 l/m 0,6 km/h N -7,6 C -4,6 C 4,4 km/h
27.01.2013 16:00 -5,3 C 82 % 1013,8 hPa 0,0 l/m 2,2 km/h N -8,0 C -5,3 C 6,8 km/h
27.01.2013 17:00 -5,5 C 83 % 1013,2 hPa 0,0 l/m 2,4 km/h N -7,9 C -5,5 C 8,4 km/h
27.01.2013 18:00 -5,1 C 84 % 1012,5 hPa 0,0 l/m 4,5 km/h N -7,5 C -5,1 C 13,7 km/h
27.01.2013 19:00 -5,3 C 84 % 1012,3 hPa 0,0 l/m 1,9 km/h N -7,6 C -5,3 C 7,3 km/h
27.01.2013 20:00 -5,6 C 84 % 1011,9 hPa 0,0 l/m 0,2 km/h N -7,9 C -5,6 C 2,8 km/h
27.01.2013 21:00 -5,8 C 85 % 1011,7 hPa 0,0 l/m 0,3 km/h N -7,9 C -5,8 C 4,0 km/h
27.01.2013 22:00 -5,8 C 86 % 1011,6 hPa 0,0 l/m 0,3 km/h N -7,7 C -5,8 C 2,8 km/h
27.01.2013 23:00 -5,6 C 86 % 1011,8 hPa 0,0 l/m 0,4 km/h N -7,6 C -5,6 C 2,4 km/h
Min-Datum _ 27.01.13 26.01.13 21.01.13 - 21.01.13 - 27.01.13 27.01.13 21.01.13
_ Min-Zeit 05:45 14:30 04:45 - 00:00 - 05:45 05:45 00:00
Minimum _ -12,1 C 69 % 994,9 hPa - 0,0 km/h - -14,1 C -12,1 C 0,0 km/h
Max-Datum _ 22.01.13 21.01.13 25.01.13 21.01.13 21.01.13 - 21.01.13 22.01.13 25.01.13
_ Max-Zeit 12:00 11:15 20:15 11:30 22:00 - 11:15 14:30 12:45
Maximum _ 1,9 C 86 % 1019,3 hPa 1,3 l/m 16,8 km/h
N
- -0,9 C 1,9 C 33,8 km/h
N
Durchschnitt _ -2,9 C 81 % 1009,9 hPa #6,0 l/m 4,4 km/h N -5,7 C -3,9 C 10,9 km/h